sensor_id;sensor_type;location;lat;lon;timestamp;temperature;humidity
72355;SHT30;60314;55.040;73.076;2022-08-21T00:02:15;11.32;82.53
72355;SHT30;60314;55.040;73.076;2022-08-21T00:04:48;11.30;82.31
72355;SHT30;60314;55.040;73.076;2022-08-21T00:07:26;11.28;82.19
72355;SHT30;60314;55.040;73.076;2022-08-21T00:09:53;11.24;82.46
72355;SHT30;60314;55.040;73.076;2022-08-21T00:12:20;11.27;82.51
72355;SHT30;60314;55.040;73.076;2022-08-21T00:14:47;11.26;82.52
72355;SHT30;60314;55.040;73.076;2022-08-21T00:17:14;11.26;82.92
72355;SHT30;60314;55.040;73.076;2022-08-21T00:19:41;11.27;82.77
72355;SHT30;60314;55.040;73.076;2022-08-21T00:22:08;11.28;83.28
72355;SHT30;60314;55.040;73.076;2022-08-21T00:24:34;11.27;83.46
72355;SHT30;60314;55.040;73.076;2022-08-21T00:27:01;11.32;83.30
72355;SHT30;60314;55.040;73.076;2022-08-21T00:29:28;11.45;82.95
72355;SHT30;60314;55.040;73.076;2022-08-21T00:31:54;11.48;82.85
72355;SHT30;60314;55.040;73.076;2022-08-21T00:34:21;11.57;82.65
72355;SHT30;60314;55.040;73.076;2022-08-21T00:36:48;11.65;82.63
72355;SHT30;60314;55.040;73.076;2022-08-21T00:39:14;11.71;82.62
72355;SHT30;60314;55.040;73.076;2022-08-21T00:41:41;11.79;82.48
72355;SHT30;60314;55.040;73.076;2022-08-21T00:44:11;11.86;82.74
72355;SHT30;60314;55.040;73.076;2022-08-21T00:46:40;11.93;82.68
72355;SHT30;60314;55.040;73.076;2022-08-21T00:49:09;12.02;82.22
72355;SHT30;60314;55.040;73.076;2022-08-21T00:51:41;12.15;81.81
72355;SHT30;60314;55.040;73.076;2022-08-21T00:54:21;12.22;82.22
72355;SHT30;60314;55.040;73.076;2022-08-21T00:56:54;12.30;82.13
72355;SHT30;60314;55.040;73.076;2022-08-21T00:59:22;12.36;82.23
72355;SHT30;60314;55.040;73.076;2022-08-21T01:01:49;12.37;82.62
72355;SHT30;60314;55.040;73.076;2022-08-21T01:04:16;12.44;82.40
72355;SHT30;60314;55.040;73.076;2022-08-21T01:06:43;12.51;82.74
72355;SHT30;60314;55.040;73.076;2022-08-21T01:09:10;12.56;82.40
72355;SHT30;60314;55.040;73.076;2022-08-21T01:11:37;12.60;82.08
72355;SHT30;60314;55.040;73.076;2022-08-21T01:14:04;12.68;81.97
72355;SHT30;60314;55.040;73.076;2022-08-21T01:16:32;12.77;82.11
72355;SHT30;60314;55.040;73.076;2022-08-21T01:18:59;12.84;81.82
72355;SHT30;60314;55.040;73.076;2022-08-21T01:21:27;12.92;82.30
72355;SHT30;60314;55.040;73.076;2022-08-21T01:23:55;12.95;81.47
72355;SHT30;60314;55.040;73.076;2022-08-21T01:26:26;13.04;81.38
72355;SHT30;60314;55.040;73.076;2022-08-21T01:31:41;13.22;81.18
72355;SHT30;60314;55.040;73.076;2022-08-21T01:34:28;13.30;82.04
72355;SHT30;60314;55.040;73.076;2022-08-21T01:37:06;13.39;80.73
72355;SHT30;60314;55.040;73.076;2022-08-21T01:40:05;13.50;81.79
72355;SHT30;60314;55.040;73.076;2022-08-21T01:42:33;13.58;81.96
72355;SHT30;60314;55.040;73.076;2022-08-21T01:45:00;13.65;82.12
72355;SHT30;60314;55.040;73.076;2022-08-21T01:47:31;13.73;82.56
72355;SHT30;60314;55.040;73.076;2022-08-21T01:49:59;13.90;81.82
72355;SHT30;60314;55.040;73.076;2022-08-21T01:52:26;13.96;82.02
72355;SHT30;60314;55.040;73.076;2022-08-21T01:54:52;14.09;79.04
72355;SHT30;60314;55.040;73.076;2022-08-21T01:57:21;14.17;80.08
72355;SHT30;60314;55.040;73.076;2022-08-21T01:59:53;14.24;79.88
72355;SHT30;60314;55.040;73.076;2022-08-21T02:02:19;14.31;80.40
72355;SHT30;60314;55.040;73.076;2022-08-21T02:04:46;14.37;80.16
72355;SHT30;60314;55.040;73.076;2022-08-21T02:07:13;14.44;80.27
72355;SHT30;60314;55.040;73.076;2022-08-21T02:09:39;14.46;80.22
72355;SHT30;60314;55.040;73.076;2022-08-21T02:12:09;14.54;80.03
72355;SHT30;60314;55.040;73.076;2022-08-21T02:14:36;14.61;79.85
72355;SHT30;60314;55.040;73.076;2022-08-21T02:17:03;14.68;79.71
72355;SHT30;60314;55.040;73.076;2022-08-21T02:19:29;14.72;79.48
72355;SHT30;60314;55.040;73.076;2022-08-21T02:21:56;14.81;79.32
72355;SHT30;60314;55.040;73.076;2022-08-21T02:24:22;14.88;79.05
72355;SHT30;60314;55.040;73.076;2022-08-21T02:26:49;14.92;79.15
72355;SHT30;60314;55.040;73.076;2022-08-21T02:29:15;14.92;78.70
72355;SHT30;60314;55.040;73.076;2022-08-21T02:31:42;14.98;78.43
72355;SHT30;60314;55.040;73.076;2022-08-21T02:34:08;15.02;78.54
72355;SHT30;60314;55.040;73.076;2022-08-21T02:36:35;15.02;78.32
72355;SHT30;60314;55.040;73.076;2022-08-21T02:39:02;15.03;78.15
72355;SHT30;60314;55.040;73.076;2022-08-21T02:41:28;15.06;78.35
72355;SHT30;60314;55.040;73.076;2022-08-21T02:43:55;15.04;78.46
72355;SHT30;60314;55.040;73.076;2022-08-21T02:46:31;15.02;78.76
72355;SHT30;60314;55.040;73.076;2022-08-21T02:48:58;15.00;78.30
72355;SHT30;60314;55.040;73.076;2022-08-21T02:51:24;15.02;78.48
72355;SHT30;60314;55.040;73.076;2022-08-21T02:53:52;15.03;80.26
72355;SHT30;60314;55.040;73.076;2022-08-21T02:56:20;15.00;81.22
72355;SHT30;60314;55.040;73.076;2022-08-21T02:58:50;15.00;81.60
72355;SHT30;60314;55.040;73.076;2022-08-21T03:01:21;14.89;81.89
72355;SHT30;60314;55.040;73.076;2022-08-21T03:03:48;14.88;81.97
72355;SHT30;60314;55.040;73.076;2022-08-21T03:06:17;14.83;82.13
72355;SHT30;60314;55.040;73.076;2022-08-21T03:08:44;14.75;82.93
72355;SHT30;60314;55.040;73.076;2022-08-21T03:11:12;14.75;82.82
72355;SHT30;60314;55.040;73.076;2022-08-21T03:13:39;14.76;83.43
72355;SHT30;60314;55.040;73.076;2022-08-21T03:16:06;14.76;83.39
72355;SHT30;60314;55.040;73.076;2022-08-21T03:18:33;14.83;83.41
72355;SHT30;60314;55.040;73.076;2022-08-21T03:21:00;14.79;83.25
72355;SHT30;60314;55.040;73.076;2022-08-21T03:23:26;14.79;83.52
72355;SHT30;60314;55.040;73.076;2022-08-21T03:25:54;14.79;83.56
72355;SHT30;60314;55.040;73.076;2022-08-21T03:28:21;14.79;83.60
72355;SHT30;60314;55.040;73.076;2022-08-21T03:30:50;14.79;83.67
72355;SHT30;60314;55.040;73.076;2022-08-21T03:33:18;14.81;84.28
72355;SHT30;60314;55.040;73.076;2022-08-21T03:35:47;14.82;84.50
72355;SHT30;60314;55.040;73.076;2022-08-21T03:38:15;14.85;84.29
72355;SHT30;60314;55.040;73.076;2022-08-21T03:40:42;14.85;84.47
72355;SHT30;60314;55.040;73.076;2022-08-21T03:43:09;14.81;84.24
72355;SHT30;60314;55.040;73.076;2022-08-21T03:45:37;14.85;83.97
72355;SHT30;60314;55.040;73.076;2022-08-21T03:48:04;14.83;84.26
72355;SHT30;60314;55.040;73.076;2022-08-21T03:50:34;14.85;84.13
72355;SHT30;60314;55.040;73.076;2022-08-21T03:53:01;14.83;84.57
72355;SHT30;60314;55.040;73.076;2022-08-21T03:55:28;14.85;84.61
72355;SHT30;60314;55.040;73.076;2022-08-21T03:57:55;14.92;84.49
72355;SHT30;60314;55.040;73.076;2022-08-21T04:00:23;14.98;84.64
72355;SHT30;60314;55.040;73.076;2022-08-21T04:02:50;15.03;84.65
72355;SHT30;60314;55.040;73.076;2022-08-21T04:05:19;15.04;84.57
72355;SHT30;60314;55.040;73.076;2022-08-21T04:07:58;15.03;84.52
72355;SHT30;60314;55.040;73.076;2022-08-21T04:10:26;15.07;84.96
72355;SHT30;60314;55.040;73.076;2022-08-21T04:13:02;15.13;85.39
72355;SHT30;60314;55.040;73.076;2022-08-21T04:15:37;15.23;84.44
72355;SHT30;60314;55.040;73.076;2022-08-21T04:18:04;15.24;84.70
72355;SHT30;60314;55.040;73.076;2022-08-21T04:20:31;15.27;84.12
72355;SHT30;60314;55.040;73.076;2022-08-21T04:22:58;15.33;84.34
72355;SHT30;60314;55.040;73.076;2022-08-21T04:25:24;15.33;84.30
72355;SHT30;60314;55.040;73.076;2022-08-21T04:27:55;15.36;83.57
72355;SHT30;60314;55.040;73.076;2022-08-21T04:30:32;15.47;84.34
72355;SHT30;60314;55.040;73.076;2022-08-21T04:32:59;15.51;83.49
72355;SHT30;60314;55.040;73.076;2022-08-21T04:35:27;15.57;84.43
72355;SHT30;60314;55.040;73.076;2022-08-21T04:37:54;15.55;83.70
72355;SHT30;60314;55.040;73.076;2022-08-21T04:40:22;15.55;85.02
72355;SHT30;60314;55.040;73.076;2022-08-21T04:43:03;15.61;84.79
72355;SHT30;60314;55.040;73.076;2022-08-21T04:45:36;15.55;84.59
72355;SHT30;60314;55.040;73.076;2022-08-21T04:48:06;15.58;84.47
72355;SHT30;60314;55.040;73.076;2022-08-21T04:53:27;15.75;85.40
72355;SHT30;60314;55.040;73.076;2022-08-21T04:56:02;15.80;84.22
72355;SHT30;60314;55.040;73.076;2022-08-21T04:58:31;15.83;85.27
72355;SHT30;60314;55.040;73.076;2022-08-21T05:01:00;15.83;84.04
72355;SHT30;60314;55.040;73.076;2022-08-21T05:03:28;15.78;85.01
72355;SHT30;60314;55.040;73.076;2022-08-21T05:05:57;15.84;85.67
72355;SHT30;60314;55.040;73.076;2022-08-21T05:08:25;15.73;85.15
72355;SHT30;60314;55.040;73.076;2022-08-21T05:10:54;15.67;85.22
72355;SHT30;60314;55.040;73.076;2022-08-21T05:13:21;15.78;85.88
72355;SHT30;60314;55.040;73.076;2022-08-21T05:15:47;15.64;85.31
72355;SHT30;60314;55.040;73.076;2022-08-21T05:18:14;15.68;85.05
72355;SHT30;60314;55.040;73.076;2022-08-21T05:20:41;15.77;85.95
72355;SHT30;60314;55.040;73.076;2022-08-21T05:23:09;15.77;84.91
72355;SHT30;60314;55.040;73.076;2022-08-21T05:25:36;15.78;85.03
72355;SHT30;60314;55.040;73.076;2022-08-21T05:28:04;15.94;85.27
72355;SHT30;60314;55.040;73.076;2022-08-21T05:30:31;16.02;84.53
72355;SHT30;60314;55.040;73.076;2022-08-21T05:32:58;16.09;84.94
72355;SHT30;60314;55.040;73.076;2022-08-21T05:35:26;16.16;83.68
72355;SHT30;60314;55.040;73.076;2022-08-21T05:37:53;16.22;83.51
72355;SHT30;60314;55.040;73.076;2022-08-21T05:40:21;16.33;82.82
72355;SHT30;60314;55.040;73.076;2022-08-21T05:42:48;16.41;82.47
72355;SHT30;60314;55.040;73.076;2022-08-21T05:45:24;16.55;82.26
72355;SHT30;60314;55.040;73.076;2022-08-21T05:47:50;16.60;81.46
72355;SHT30;60314;55.040;73.076;2022-08-21T05:50:22;16.60;81.81
72355;SHT30;60314;55.040;73.076;2022-08-21T05:52:54;16.63;81.80
72355;SHT30;60314;55.040;73.076;2022-08-21T05:55:20;16.69;82.42
72355;SHT30;60314;55.040;73.076;2022-08-21T05:57:47;16.79;81.34
72355;SHT30;60314;55.040;73.076;2022-08-21T06:00:14;16.70;81.10
72355;SHT30;60314;55.040;73.076;2022-08-21T06:02:40;16.56;81.59
72355;SHT30;60314;55.040;73.076;2022-08-21T06:05:07;16.57;82.36
72355;SHT30;60314;55.040;73.076;2022-08-21T06:07:34;16.43;83.41
72355;SHT30;60314;55.040;73.076;2022-08-21T06:10:01;16.30;84.51
72355;SHT30;60314;55.040;73.076;2022-08-21T06:12:28;16.41;85.07
72355;SHT30;60314;55.040;73.076;2022-08-21T06:14:54;16.43;83.54
72355;SHT30;60314;55.040;73.076;2022-08-21T06:17:21;16.48;83.71
72355;SHT30;60314;55.040;73.076;2022-08-21T06:19:51;16.56;84.18
72355;SHT30;60314;55.040;73.076;2022-08-21T06:22:23;16.76;83.12
72355;SHT30;60314;55.040;73.076;2022-08-21T06:25:00;16.80;83.09
72355;SHT30;60314;55.040;73.076;2022-08-21T06:27:26;16.87;82.28
72355;SHT30;60314;55.040;73.076;2022-08-21T06:29:52;16.90;82.45
72355;SHT30;60314;55.040;73.076;2022-08-21T06:32:19;16.88;81.01
72355;SHT30;60314;55.040;73.076;2022-08-21T06:34:45;16.86;81.23
72355;SHT30;60314;55.040;73.076;2022-08-21T06:37:15;16.99;80.20
72355;SHT30;60314;55.040;73.076;2022-08-21T06:39:42;17.08;79.24
72355;SHT30;60314;55.040;73.076;2022-08-21T06:42:14;17.30;78.95
72355;SHT30;60314;55.040;73.076;2022-08-21T06:44:41;17.38;77.77
72355;SHT30;60314;55.040;73.076;2022-08-21T06:47:08;17.44;79.16
72355;SHT30;60314;55.040;73.076;2022-08-21T06:49:40;17.44;78.18
72355;SHT30;60314;55.040;73.076;2022-08-21T06:52:11;17.44;78.05
72355;SHT30;60314;55.040;73.076;2022-08-21T06:54:39;17.39;79.84
72355;SHT30;60314;55.040;73.076;2022-08-21T06:57:05;17.42;77.37
72355;SHT30;60314;55.040;73.076;2022-08-21T06:59:32;17.37;77.82
72355;SHT30;60314;55.040;73.076;2022-08-21T07:01:59;17.46;77.35
72355;SHT30;60314;55.040;73.076;2022-08-21T07:04:26;17.59;77.27
72355;SHT30;60314;55.040;73.076;2022-08-21T07:06:52;17.52;77.18
72355;SHT30;60314;55.040;73.076;2022-08-21T07:09:19;17.48;76.03
72355;SHT30;60314;55.040;73.076;2022-08-21T07:11:49;17.62;76.10
72355;SHT30;60314;55.040;73.076;2022-08-21T07:14:17;17.68;75.32
72355;SHT30;60314;55.040;73.076;2022-08-21T07:16:43;17.74;75.42
72355;SHT30;60314;55.040;73.076;2022-08-21T07:19:15;17.71;75.23
72355;SHT30;60314;55.040;73.076;2022-08-21T07:21:41;17.54;75.66
72355;SHT30;60314;55.040;73.076;2022-08-21T07:24:08;17.24;74.96
72355;SHT30;60314;55.040;73.076;2022-08-21T07:26:35;17.03;76.15
72355;SHT30;60314;55.040;73.076;2022-08-21T07:29:03;16.91;76.28
72355;SHT30;60314;55.040;73.076;2022-08-21T07:31:29;16.62;76.82
72355;SHT30;60314;55.040;73.076;2022-08-21T07:33:56;16.60;78.11
72355;SHT30;60314;55.040;73.076;2022-08-21T07:36:23;16.56;78.80
72355;SHT30;60314;55.040;73.076;2022-08-21T07:38:52;16.38;79.58
72355;SHT30;60314;55.040;73.076;2022-08-21T07:41:27;16.26;79.36
72355;SHT30;60314;55.040;73.076;2022-08-21T07:43:58;15.84;80.52
72355;SHT30;60314;55.040;73.076;2022-08-21T07:46:25;15.54;81.90
72355;SHT30;60314;55.040;73.076;2022-08-21T07:48:52;15.46;82.77
72355;SHT30;60314;55.040;73.076;2022-08-21T07:51:23;15.36;81.87
72355;SHT30;60314;55.040;73.076;2022-08-21T07:53:52;15.37;82.38
72355;SHT30;60314;55.040;73.076;2022-08-21T07:56:19;15.46;80.74
72355;SHT30;60314;55.040;73.076;2022-08-21T07:58:46;15.43;80.72
72355;SHT30;60314;55.040;73.076;2022-08-21T08:01:13;15.50;80.49
72355;SHT30;60314;55.040;73.076;2022-08-21T08:03:40;15.55;79.85
72355;SHT30;60314;55.040;73.076;2022-08-21T08:06:07;15.58;79.82
72355;SHT30;60314;55.040;73.076;2022-08-21T08:08:41;15.58;80.87
72355;SHT30;60314;55.040;73.076;2022-08-21T08:11:09;15.57;81.76
72355;SHT30;60314;55.040;73.076;2022-08-21T08:13:41;15.55;82.74
72355;SHT30;60314;55.040;73.076;2022-08-21T08:16:08;15.54;82.10
72355;SHT30;60314;55.040;73.076;2022-08-21T08:18:35;15.44;81.51
72355;SHT30;60314;55.040;73.076;2022-08-21T08:21:02;15.36;81.60
72355;SHT30;60314;55.040;73.076;2022-08-21T08:23:28;15.39;79.73
72355;SHT30;60314;55.040;73.076;2022-08-21T08:25:56;15.39;79.49
72355;SHT30;60314;55.040;73.076;2022-08-21T08:28:23;15.40;79.09
72355;SHT30;60314;55.040;73.076;2022-08-21T08:30:50;15.43;78.43
72355;SHT30;60314;55.040;73.076;2022-08-21T08:33:17;15.51;78.51
72355;SHT30;60314;55.040;73.076;2022-08-21T08:35:46;15.58;78.19
72355;SHT30;60314;55.040;73.076;2022-08-21T08:38:14;15.61;77.36
72355;SHT30;60314;55.040;73.076;2022-08-21T08:41:14;15.58;76.58
72355;SHT30;60314;55.040;73.076;2022-08-21T08:43:48;15.57;75.42
72355;SHT30;60314;55.040;73.076;2022-08-21T08:46:17;15.51;75.52
72355;SHT30;60314;55.040;73.076;2022-08-21T08:48:58;15.61;76.07
72355;SHT30;60314;55.040;73.076;2022-08-21T08:51:52;15.67;76.13
72355;SHT30;60314;55.040;73.076;2022-08-21T08:54:28;15.71;76.22
72355;SHT30;60314;55.040;73.076;2022-08-21T08:56:59;15.68;75.72
72355;SHT30;60314;55.040;73.076;2022-08-21T08:59:39;15.65;75.80
72355;SHT30;60314;55.040;73.076;2022-08-21T09:02:16;15.58;76.90
72355;SHT30;60314;55.040;73.076;2022-08-21T09:04:47;15.51;75.84
72355;SHT30;60314;55.040;73.076;2022-08-21T09:07:40;15.46;75.82
72355;SHT30;60314;55.040;73.076;2022-08-21T09:10:17;15.51;75.44
72355;SHT30;60314;55.040;73.076;2022-08-21T09:13:06;15.60;75.17
72355;SHT30;60314;55.040;73.076;2022-08-21T09:24:04;15.74;74.66
72355;SHT30;60314;55.040;73.076;2022-08-21T09:29:31;15.95;73.13
72355;SHT30;60314;55.040;73.076;2022-08-21T09:31:59;15.94;73.65
72355;SHT30;60314;55.040;73.076;2022-08-21T09:34:28;16.02;72.73
72355;SHT30;60314;55.040;73.076;2022-08-21T09:36:56;15.98;72.19
72355;SHT30;60314;55.040;73.076;2022-08-21T09:39:31;15.94;73.91
72355;SHT30;60314;55.040;73.076;2022-08-21T09:42:00;16.14;72.67
72355;SHT30;60314;55.040;73.076;2022-08-21T09:44:30;16.04;72.73
72355;SHT30;60314;55.040;73.076;2022-08-21T09:46:57;16.05;72.37
72355;SHT30;60314;55.040;73.076;2022-08-21T09:49:33;15.92;72.33
72355;SHT30;60314;55.040;73.076;2022-08-21T09:52:01;15.97;72.36
72355;SHT30;60314;55.040;73.076;2022-08-21T09:54:40;15.98;72.41
72355;SHT30;60314;55.040;73.076;2022-08-21T09:57:17;15.92;72.61
72355;SHT30;60314;55.040;73.076;2022-08-21T10:00:30;15.91;73.51
72355;SHT30;60314;55.040;73.076;2022-08-21T10:03:18;16.05;71.93
72355;SHT30;60314;55.040;73.076;2022-08-21T10:05:58;16.11;71.14
72355;SHT30;60314;55.040;73.076;2022-08-21T10:08:27;15.97;72.04
72355;SHT30;60314;55.040;73.076;2022-08-21T10:10:57;16.01;71.75
72355;SHT30;60314;55.040;73.076;2022-08-21T10:13:54;15.97;72.68
72355;SHT30;60314;55.040;73.076;2022-08-21T10:19:14;16.15;70.78
72355;SHT30;60314;55.040;73.076;2022-08-21T10:22:09;16.09;70.68
72355;SHT30;60314;55.040;73.076;2022-08-21T10:27:51;16.12;70.68
72355;SHT30;60314;55.040;73.076;2022-08-21T10:30:49;16.11;70.52
72355;SHT30;60314;55.040;73.076;2022-08-21T10:36:20;15.94;71.43
72355;SHT30;60314;55.040;73.076;2022-08-21T10:47:18;15.61;71.48
72355;SHT30;60314;55.040;73.076;2022-08-21T10:50:16;15.67;71.68
72355;SHT30;60314;55.040;73.076;2022-08-21T10:55:16;15.71;71.94
72355;SHT30;60314;55.040;73.076;2022-08-21T11:00:28;15.51;72.40
72355;SHT30;60314;55.040;73.076;2022-08-21T11:03:07;15.40;71.76
72355;SHT30;60314;55.040;73.076;2022-08-21T11:05:40;15.32;71.39
72355;SHT30;60314;55.040;73.076;2022-08-21T11:08:15;15.32;71.47
72355;SHT30;60314;55.040;73.076;2022-08-21T11:19:19;15.49;68.67
72355;SHT30;60314;55.040;73.076;2022-08-21T11:29:48;15.67;66.43
72355;SHT30;60314;55.040;73.076;2022-08-21T11:35:16;15.77;65.03
72355;SHT30;60314;55.040;73.076;2022-08-21T11:43:52;15.80;64.24
72355;SHT30;60314;55.040;73.076;2022-08-21T11:51:44;15.83;63.40
72355;SHT30;60314;55.040;73.076;2022-08-21T12:00:06;15.92;62.51
72355;SHT30;60314;55.040;73.076;2022-08-21T12:02:51;15.98;62.28
72355;SHT30;60314;55.040;73.076;2022-08-21T12:05:40;15.92;62.26
72355;SHT30;60314;55.040;73.076;2022-08-21T12:08:36;15.84;61.34
72355;SHT30;60314;55.040;73.076;2022-08-21T12:13:36;15.71;61.75
72355;SHT30;60314;55.040;73.076;2022-08-21T12:16:11;15.71;62.21
72355;SHT30;60314;55.040;73.076;2022-08-21T12:18:48;15.65;62.07
72355;SHT30;60314;55.040;73.076;2022-08-21T12:26:55;15.55;62.77
72355;SHT30;60314;55.040;73.076;2022-08-21T12:29:30;15.50;63.39
72355;SHT30;60314;55.040;73.076;2022-08-21T12:34:37;15.43;63.44
72355;SHT30;60314;55.040;73.076;2022-08-21T12:39:59;15.34;63.19
72355;SHT30;60314;55.040;73.076;2022-08-21T12:42:41;15.30;63.84
72355;SHT30;60314;55.040;73.076;2022-08-21T12:45:20;15.33;64.64
72355;SHT30;60314;55.040;73.076;2022-08-21T12:50:44;15.33;63.59
72355;SHT30;60314;55.040;73.076;2022-08-21T12:53:20;15.30;64.54
72355;SHT30;60314;55.040;73.076;2022-08-21T12:55:49;15.30;64.23
72355;SHT30;60314;55.040;73.076;2022-08-21T12:58:20;15.33;64.69
72355;SHT30;60314;55.040;73.076;2022-08-21T13:01:05;15.32;64.59
72355;SHT30;60314;55.040;73.076;2022-08-21T13:03:36;15.24;64.38
72355;SHT30;60314;55.040;73.076;2022-08-21T13:06:04;15.23;64.89
72355;SHT30;60314;55.040;73.076;2022-08-21T13:08:36;15.22;64.35
72355;SHT30;60314;55.040;73.076;2022-08-21T13:11:05;15.20;64.24
72355;SHT30;60314;55.040;73.076;2022-08-21T13:13:33;15.18;64.78
72355;SHT30;60314;55.040;73.076;2022-08-21T13:16:03;15.13;63.56
72355;SHT30;60314;55.040;73.076;2022-08-21T13:18:32;15.07;63.93
72355;SHT30;60314;55.040;73.076;2022-08-21T13:21:05;15.06;64.59
72355;SHT30;60314;55.040;73.076;2022-08-21T13:23:32;14.99;63.82
72355;SHT30;60314;55.040;73.076;2022-08-21T13:25:58;14.98;63.73
72355;SHT30;60314;55.040;73.076;2022-08-21T13:28:35;14.92;64.11
72355;SHT30;60314;55.040;73.076;2022-08-21T13:31:07;14.91;63.32
72355;SHT30;60314;55.040;73.076;2022-08-21T13:33:36;14.81;61.30
72355;SHT30;60314;55.040;73.076;2022-08-21T13:36:05;14.73;61.68
72355;SHT30;60314;55.040;73.076;2022-08-21T13:38:35;14.68;61.94
72355;SHT30;60314;55.040;73.076;2022-08-21T13:41:08;14.61;61.96
72355;SHT30;60314;55.040;73.076;2022-08-21T13:43:37;14.55;62.12
72355;SHT30;60314;55.040;73.076;2022-08-21T13:46:10;14.51;61.74
72355;SHT30;60314;55.040;73.076;2022-08-21T13:48:39;14.52;62.27
72355;SHT30;60314;55.040;73.076;2022-08-21T13:51:05;14.51;62.39
72355;SHT30;60314;55.040;73.076;2022-08-21T13:53:34;14.45;62.06
72355;SHT30;60314;55.040;73.076;2022-08-21T13:56:03;14.41;61.97
72355;SHT30;60314;55.040;73.076;2022-08-21T14:00:59;14.34;62.32
72355;SHT30;60314;55.040;73.076;2022-08-21T14:03:47;14.34;61.80
72355;SHT30;60314;55.040;73.076;2022-08-21T14:06:36;14.32;61.93
72355;SHT30;60314;55.040;73.076;2022-08-21T14:09:13;14.28;62.03
72355;SHT30;60314;55.040;73.076;2022-08-21T14:11:41;14.28;61.83
72355;SHT30;60314;55.040;73.076;2022-08-21T14:14:26;14.22;62.27
72355;SHT30;60314;55.040;73.076;2022-08-21T14:17:05;14.14;62.59
72355;SHT30;60314;55.040;73.076;2022-08-21T14:19:44;14.07;62.82
72355;SHT30;60314;55.040;73.076;2022-08-21T14:25:13;13.83;63.21
72355;SHT30;60314;55.040;73.076;2022-08-21T14:27:51;13.69;63.40
72355;SHT30;60314;55.040;73.076;2022-08-21T14:30:33;13.60;63.57
72355;SHT30;60314;55.040;73.076;2022-08-21T14:33:00;13.50;63.95
72355;SHT30;60314;55.040;73.076;2022-08-21T14:35:27;13.48;64.18
72355;SHT30;60314;55.040;73.076;2022-08-21T14:37:54;13.35;64.48
72355;SHT30;60314;55.040;73.076;2022-08-21T14:40:24;13.21;64.92
72355;SHT30;60314;55.040;73.076;2022-08-21T14:42:54;13.14;65.33
72355;SHT30;60314;55.040;73.076;2022-08-21T14:45:29;13.02;65.73
72355;SHT30;60314;55.040;73.076;2022-08-21T14:47:57;12.94;65.84
72355;SHT30;60314;55.040;73.076;2022-08-21T14:50:24;12.88;65.86
72355;SHT30;60314;55.040;73.076;2022-08-21T14:52:51;12.77;65.98
72355;SHT30;60314;55.040;73.076;2022-08-21T14:55:19;12.67;66.31
72355;SHT30;60314;55.040;73.076;2022-08-21T14:57:54;12.58;66.19
72355;SHT30;60314;55.040;73.076;2022-08-21T15:00:22;12.53;66.48
72355;SHT30;60314;55.040;73.076;2022-08-21T15:02:49;12.47;66.50
72355;SHT30;60314;55.040;73.076;2022-08-21T15:05:16;12.40;66.50
72355;SHT30;60314;55.040;73.076;2022-08-21T15:07:43;12.36;66.69
72355;SHT30;60314;55.040;73.076;2022-08-21T15:10:10;12.27;66.95
72355;SHT30;60314;55.040;73.076;2022-08-21T15:12:37;12.17;67.02
72355;SHT30;60314;55.040;73.076;2022-08-21T15:15:05;12.10;67.63
72355;SHT30;60314;55.040;73.076;2022-08-21T15:17:32;12.06;67.57
72355;SHT30;60314;55.040;73.076;2022-08-21T15:19:58;12.02;67.64
72355;SHT30;60314;55.040;73.076;2022-08-21T15:22:29;12.02;67.69
72355;SHT30;60314;55.040;73.076;2022-08-21T15:24:56;12.00;67.64
72355;SHT30;60314;55.040;73.076;2022-08-21T15:27:28;11.99;67.69
72355;SHT30;60314;55.040;73.076;2022-08-21T15:29:55;12.00;67.72
72355;SHT30;60314;55.040;73.076;2022-08-21T15:32:25;12.00;68.06
72355;SHT30;60314;55.040;73.076;2022-08-21T15:34:54;12.03;67.81
72355;SHT30;60314;55.040;73.076;2022-08-21T15:37:21;12.02;68.13
72355;SHT30;60314;55.040;73.076;2022-08-21T15:39:49;12.05;67.98
72355;SHT30;60314;55.040;73.076;2022-08-21T15:42:16;12.09;68.11
72355;SHT30;60314;55.040;73.076;2022-08-21T15:44:47;12.12;67.98
72355;SHT30;60314;55.040;73.076;2022-08-21T15:47:22;12.17;68.26
72355;SHT30;60314;55.040;73.076;2022-08-21T15:49:50;12.19;67.93
72355;SHT30;60314;55.040;73.076;2022-08-21T15:52:20;12.26;69.74
72355;SHT30;60314;55.040;73.076;2022-08-21T15:54:52;12.30;69.63
72355;SHT30;60314;55.040;73.076;2022-08-21T15:57:51;12.37;68.29
72355;SHT30;60314;55.040;73.076;2022-08-21T16:00:21;12.46;66.69
72355;SHT30;60314;55.040;73.076;2022-08-21T16:02:52;12.53;67.07
72355;SHT30;60314;55.040;73.076;2022-08-21T16:05:20;12.56;67.27
72355;SHT30;60314;55.040;73.076;2022-08-21T16:07:48;12.58;66.96
72355;SHT30;60314;55.040;73.076;2022-08-21T16:10:53;12.60;67.10
72355;SHT30;60314;55.040;73.076;2022-08-21T16:13:35;12.57;67.09
72355;SHT30;60314;55.040;73.076;2022-08-21T16:16:17;12.57;67.09
72355;SHT30;60314;55.040;73.076;2022-08-21T16:19:37;12.61;67.48
72355;SHT30;60314;55.040;73.076;2022-08-21T16:22:06;12.63;66.85
72355;SHT30;60314;55.040;73.076;2022-08-21T16:28:25;12.61;67.02
72355;SHT30;60314;55.040;73.076;2022-08-21T16:30:51;12.61;66.98
72355;SHT30;60314;55.040;73.076;2022-08-21T16:33:34;12.57;67.50
72355;SHT30;60314;55.040;73.076;2022-08-21T16:36:04;12.57;68.19
72355;SHT30;60314;55.040;73.076;2022-08-21T16:38:32;12.57;66.68
72355;SHT30;60314;55.040;73.076;2022-08-21T16:41:12;12.57;66.63
72355;SHT30;60314;55.040;73.076;2022-08-21T16:43:51;12.53;68.03
72355;SHT30;60314;55.040;73.076;2022-08-21T16:46:21;12.51;68.71
72355;SHT30;60314;55.040;73.076;2022-08-21T16:48:48;12.54;68.42
72355;SHT30;60314;55.040;73.076;2022-08-21T16:51:15;12.56;68.12
72355;SHT30;60314;55.040;73.076;2022-08-21T16:53:42;12.63;67.50
72355;SHT30;60314;55.040;73.076;2022-08-21T16:56:11;12.63;67.73
72355;SHT30;60314;55.040;73.076;2022-08-21T16:58:46;12.60;67.86
72355;SHT30;60314;55.040;73.076;2022-08-21T17:01:19;12.56;68.07
72355;SHT30;60314;55.040;73.076;2022-08-21T17:03:47;12.56;67.99
72355;SHT30;60314;55.040;73.076;2022-08-21T17:06:23;12.50;67.66
72355;SHT30;60314;55.040;73.076;2022-08-21T17:08:50;12.47;67.90
72355;SHT30;60314;55.040;73.076;2022-08-21T17:11:36;12.44;68.06
72355;SHT30;60314;55.040;73.076;2022-08-21T17:14:10;12.41;67.98
72355;SHT30;60314;55.040;73.076;2022-08-21T17:16:39;12.41;68.18
72355;SHT30;60314;55.040;73.076;2022-08-21T17:19:11;12.44;68.25
72355;SHT30;60314;55.040;73.076;2022-08-21T17:21:38;12.43;68.27